New Richmond Regional Airport New Richmond US
ICAO: KRNH
IATA: RNH
Category: Medium
Scheduled Services: No

Elevation: 998 ft
TransAlt. 18000 ft.

Airport Communications:
MINNEAPOLIS APP/DEP:121.2
AWOS 3:120
CTAF/UNICOM:122.975

KRNH Zoom In..

Runways:

(A) RW 04 length 2050 ft width 75 ft
---- / hdg 42

(B) RW 14 length 5507 ft width 75 ft
---- / hdg 141

(C) RW 22 length 2050 ft width 75 ft
---- / hdg 222

(D) RW 32 length 5507 ft width 75 ft
---- / hdg 321

Location; KRNH
Day. 04 / Time. 00.55 Zulu
* Altimeter: 29.88
* Temperature: 01° c. 33.8°f.
* Wind from: 250° Speed 07 kn.
Dewpoint: -05° c.
Visibility: 10 Statute Miles.
Clouds: Clear (automated report).

KRNH 040055Z AUTO 25007KT 10SM CLR 01/M05 A2988 RMK AO2 T00061055

Going to: --> -->


Wind From 250°
Speed 07 kn.

 
 
jpsmedia worldairports.se 2020   terms of use